sensor_id;sensor_type;location;lat;lon;timestamp;P1;durP1;ratioP1;P2;durP2;ratioP2
14903;SDS011;7543;53.148;8.234;2023-11-21T00:00:26;10.17;;;4.33;;
14903;SDS011;7543;53.148;8.234;2023-11-21T00:02:54;14.57;;;4.63;;
14903;SDS011;7543;53.148;8.234;2023-11-21T00:05:24;10.50;;;4.40;;
14903;SDS011;7543;53.148;8.234;2023-11-21T00:07:52;9.07;;;4.27;;
14903;SDS011;7543;53.148;8.234;2023-11-21T00:10:21;7.87;;;4.10;;
14903;SDS011;7543;53.148;8.234;2023-11-21T00:12:51;10.27;;;4.20;;
14903;SDS011;7543;53.148;8.234;2023-11-21T00:15:21;11.07;;;4.40;;
14903;SDS011;7543;53.148;8.234;2023-11-21T00:17:50;13.63;;;4.33;;
14903;SDS011;7543;53.148;8.234;2023-11-21T00:20:18;16.83;;;4.90;;
14903;SDS011;7543;53.148;8.234;2023-11-21T00:22:46;15.13;;;4.50;;
14903;SDS011;7543;53.148;8.234;2023-11-21T00:25:15;10.20;;;4.40;;
14903;SDS011;7543;53.148;8.234;2023-11-21T00:27:44;13.80;;;4.23;;
14903;SDS011;7543;53.148;8.234;2023-11-21T00:30:14;12.87;;;4.87;;
14903;SDS011;7543;53.148;8.234;2023-11-21T00:32:43;11.47;;;4.90;;
14903;SDS011;7543;53.148;8.234;2023-11-21T00:35:11;12.43;;;4.70;;
14903;SDS011;7543;53.148;8.234;2023-11-21T00:37:40;11.17;;;4.57;;
14903;SDS011;7543;53.148;8.234;2023-11-21T00:40:09;12.50;;;4.37;;
14903;SDS011;7543;53.148;8.234;2023-11-21T00:42:38;11.33;;;4.83;;
14903;SDS011;7543;53.148;8.234;2023-11-21T00:45:07;12.93;;;5.00;;
14903;SDS011;7543;53.148;8.234;2023-11-21T00:47:38;11.37;;;4.27;;
14903;SDS011;7543;53.148;8.234;2023-11-21T00:50:08;14.77;;;4.57;;
14903;SDS011;7543;53.148;8.234;2023-11-21T00:52:36;13.53;;;4.57;;
14903;SDS011;7543;53.148;8.234;2023-11-21T00:55:05;11.33;;;4.63;;
14903;SDS011;7543;53.148;8.234;2023-11-21T00:57:34;17.60;;;5.07;;
14903;SDS011;7543;53.148;8.234;2023-11-21T01:00:04;11.53;;;4.73;;
14903;SDS011;7543;53.148;8.234;2023-11-21T01:02:38;11.77;;;4.90;;
14903;SDS011;7543;53.148;8.234;2023-11-21T01:05:06;14.33;;;5.00;;
14903;SDS011;7543;53.148;8.234;2023-11-21T01:07:36;15.57;;;4.93;;
14903;SDS011;7543;53.148;8.234;2023-11-21T01:10:04;11.30;;;4.80;;
14903;SDS011;7543;53.148;8.234;2023-11-21T01:12:34;16.23;;;4.93;;
14903;SDS011;7543;53.148;8.234;2023-11-21T01:15:03;15.03;;;4.90;;
14903;SDS011;7543;53.148;8.234;2023-11-21T01:17:34;9.43;;;4.70;;
14903;SDS011;7543;53.148;8.234;2023-11-21T01:20:04;18.10;;;5.33;;
14903;SDS011;7543;53.148;8.234;2023-11-21T01:22:37;12.70;;;4.87;;
14903;SDS011;7543;53.148;8.234;2023-11-21T01:25:06;15.63;;;5.17;;
14903;SDS011;7543;53.148;8.234;2023-11-21T01:27:34;12.20;;;5.67;;
14903;SDS011;7543;53.148;8.234;2023-11-21T01:30:03;13.87;;;5.30;;
14903;SDS011;7543;53.148;8.234;2023-11-21T01:32:35;11.03;;;5.70;;
14903;SDS011;7543;53.148;8.234;2023-11-21T01:35:06;11.60;;;5.40;;
14903;SDS011;7543;53.148;8.234;2023-11-21T01:37:34;12.00;;;5.03;;
14903;SDS011;7543;53.148;8.234;2023-11-21T01:40:02;11.60;;;5.03;;
14903;SDS011;7543;53.148;8.234;2023-11-21T01:42:34;14.07;;;5.57;;
14903;SDS011;7543;53.148;8.234;2023-11-21T01:45:03;17.27;;;5.70;;
14903;SDS011;7543;53.148;8.234;2023-11-21T01:47:33;12.00;;;5.60;;
14903;SDS011;7543;53.148;8.234;2023-11-21T01:50:02;16.13;;;5.60;;
14903;SDS011;7543;53.148;8.234;2023-11-21T01:52:34;9.47;;;5.37;;
14903;SDS011;7543;53.148;8.234;2023-11-21T01:55:02;9.20;;;5.77;;
14903;SDS011;7543;53.148;8.234;2023-11-21T01:57:31;12.23;;;5.40;;
14903;SDS011;7543;53.148;8.234;2023-11-21T02:00:00;13.37;;;5.43;;
14903;SDS011;7543;53.148;8.234;2023-11-21T02:02:39;12.40;;;5.17;;
14903;SDS011;7543;53.148;8.234;2023-11-21T02:05:07;14.93;;;5.90;;
14903;SDS011;7543;53.148;8.234;2023-11-21T02:07:37;12.23;;;5.53;;
14903;SDS011;7543;53.148;8.234;2023-11-21T02:10:06;10.30;;;5.73;;
14903;SDS011;7543;53.148;8.234;2023-11-21T02:12:35;15.30;;;6.07;;
14903;SDS011;7543;53.148;8.234;2023-11-21T02:15:06;14.13;;;5.07;;
14903;SDS011;7543;53.148;8.234;2023-11-21T02:17:41;15.90;;;6.03;;
14903;SDS011;7543;53.148;8.234;2023-11-21T02:20:11;14.63;;;5.83;;
14903;SDS011;7543;53.148;8.234;2023-11-21T02:25:17;16.47;;;5.90;;
14903;SDS011;7543;53.148;8.234;2023-11-21T02:27:45;13.57;;;5.63;;
14903;SDS011;7543;53.148;8.234;2023-11-21T02:30:15;12.77;;;4.93;;
14903;SDS011;7543;53.148;8.234;2023-11-21T02:32:43;14.37;;;5.37;;
14903;SDS011;7543;53.148;8.234;2023-11-21T02:35:12;11.07;;;5.20;;
14903;SDS011;7543;53.148;8.234;2023-11-21T02:37:42;11.80;;;5.60;;
14903;SDS011;7543;53.148;8.234;2023-11-21T02:40:12;10.37;;;4.93;;
14903;SDS011;7543;53.148;8.234;2023-11-21T02:42:44;12.73;;;4.80;;
14903;SDS011;7543;53.148;8.234;2023-11-21T02:45:14;12.07;;;5.60;;
14903;SDS011;7543;53.148;8.234;2023-11-21T02:47:43;13.40;;;4.50;;
14903;SDS011;7543;53.148;8.234;2023-11-21T02:50:12;12.50;;;4.67;;
14903;SDS011;7543;53.148;8.234;2023-11-21T02:52:49;8.23;;;4.33;;
14903;SDS011;7543;53.148;8.234;2023-11-21T02:55:19;8.03;;;4.00;;
14903;SDS011;7543;53.148;8.234;2023-11-21T02:57:47;9.13;;;4.30;;
14903;SDS011;7543;53.148;8.234;2023-11-21T03:00:16;11.30;;;4.50;;
14903;SDS011;7543;53.148;8.234;2023-11-21T03:02:45;10.13;;;4.00;;
14903;SDS011;7543;53.148;8.234;2023-11-21T03:05:14;14.27;;;4.67;;
14903;SDS011;7543;53.148;8.234;2023-11-21T03:07:42;12.13;;;4.37;;
14903;SDS011;7543;53.148;8.234;2023-11-21T03:10:11;14.33;;;4.47;;
14903;SDS011;7543;53.148;8.234;2023-11-21T03:12:40;14.33;;;4.17;;
14903;SDS011;7543;53.148;8.234;2023-11-21T03:15:09;10.73;;;4.57;;
14903;SDS011;7543;53.148;8.234;2023-11-21T03:17:37;11.37;;;4.53;;
14903;SDS011;7543;53.148;8.234;2023-11-21T03:20:06;10.40;;;4.37;;
14903;SDS011;7543;53.148;8.234;2023-11-21T03:22:37;10.93;;;4.53;;
14903;SDS011;7543;53.148;8.234;2023-11-21T03:25:06;7.07;;;4.60;;
14903;SDS011;7543;53.148;8.234;2023-11-21T03:27:37;9.37;;;4.83;;
14903;SDS011;7543;53.148;8.234;2023-11-21T03:30:08;8.87;;;4.80;;
14903;SDS011;7543;53.148;8.234;2023-11-21T03:32:37;10.67;;;4.97;;
14903;SDS011;7543;53.148;8.234;2023-11-21T03:35:06;9.70;;;4.47;;
14903;SDS011;7543;53.148;8.234;2023-11-21T03:37:35;10.67;;;5.40;;
14903;SDS011;7543;53.148;8.234;2023-11-21T03:40:05;9.97;;;5.40;;
14903;SDS011;7543;53.148;8.234;2023-11-21T03:42:35;10.73;;;5.87;;
14903;SDS011;7543;53.148;8.234;2023-11-21T03:45:04;10.67;;;5.23;;
14903;SDS011;7543;53.148;8.234;2023-11-21T03:47:34;11.83;;;5.90;;
14903;SDS011;7543;53.148;8.234;2023-11-21T03:50:03;11.50;;;6.07;;
14903;SDS011;7543;53.148;8.234;2023-11-21T03:52:32;14.20;;;6.70;;
14903;SDS011;7543;53.148;8.234;2023-11-21T03:55:02;10.30;;;6.20;;
14903;SDS011;7543;53.148;8.234;2023-11-21T03:57:31;14.70;;;5.63;;
14903;SDS011;7543;53.148;8.234;2023-11-21T03:59:59;12.93;;;6.10;;
14903;SDS011;7543;53.148;8.234;2023-11-21T04:02:27;11.63;;;6.00;;
14903;SDS011;7543;53.148;8.234;2023-11-21T04:04:57;13.13;;;6.70;;
14903;SDS011;7543;53.148;8.234;2023-11-21T04:07:26;15.63;;;7.30;;
14903;SDS011;7543;53.148;8.234;2023-11-21T04:09:54;15.70;;;6.77;;
14903;SDS011;7543;53.148;8.234;2023-11-21T04:12:23;11.90;;;6.30;;
14903;SDS011;7543;53.148;8.234;2023-11-21T04:14:52;12.50;;;6.80;;
14903;SDS011;7543;53.148;8.234;2023-11-21T04:17:20;13.87;;;7.73;;
14903;SDS011;7543;53.148;8.234;2023-11-21T04:19:48;16.43;;;7.73;;
14903;SDS011;7543;53.148;8.234;2023-11-21T04:22:18;14.93;;;7.57;;
14903;SDS011;7543;53.148;8.234;2023-11-21T04:24:46;13.37;;;7.63;;
14903;SDS011;7543;53.148;8.234;2023-11-21T04:27:35;14.60;;;7.93;;
14903;SDS011;7543;53.148;8.234;2023-11-21T04:30:03;16.00;;;8.13;;
14903;SDS011;7543;53.148;8.234;2023-11-21T04:32:33;14.67;;;8.30;;
14903;SDS011;7543;53.148;8.234;2023-11-21T04:35:01;22.87;;;9.00;;
14903;SDS011;7543;53.148;8.234;2023-11-21T04:37:32;14.20;;;8.13;;
14903;SDS011;7543;53.148;8.234;2023-11-21T04:40:00;15.90;;;8.93;;
14903;SDS011;7543;53.148;8.234;2023-11-21T04:42:31;16.67;;;8.73;;
14903;SDS011;7543;53.148;8.234;2023-11-21T04:44:59;17.53;;;8.70;;
14903;SDS011;7543;53.148;8.234;2023-11-21T04:47:28;19.13;;;9.33;;
14903;SDS011;7543;53.148;8.234;2023-11-21T04:49:56;15.97;;;8.67;;
14903;SDS011;7543;53.148;8.234;2023-11-21T04:52:25;17.77;;;9.60;;
14903;SDS011;7543;53.148;8.234;2023-11-21T04:54:54;14.77;;;8.10;;
14903;SDS011;7543;53.148;8.234;2023-11-21T04:57:25;14.67;;;8.80;;
14903;SDS011;7543;53.148;8.234;2023-11-21T04:59:55;15.77;;;9.30;;
14903;SDS011;7543;53.148;8.234;2023-11-21T05:02:23;15.53;;;9.13;;
14903;SDS011;7543;53.148;8.234;2023-11-21T05:04:51;14.30;;;8.87;;
14903;SDS011;7543;53.148;8.234;2023-11-21T05:07:20;16.13;;;8.67;;
14903;SDS011;7543;53.148;8.234;2023-11-21T05:09:49;15.07;;;9.07;;
14903;SDS011;7543;53.148;8.234;2023-11-21T05:12:19;16.60;;;8.53;;
14903;SDS011;7543;53.148;8.234;2023-11-21T05:14:47;13.37;;;7.97;;
14903;SDS011;7543;53.148;8.234;2023-11-21T05:17:15;14.67;;;8.03;;
14903;SDS011;7543;53.148;8.234;2023-11-21T05:19:44;15.47;;;8.40;;
14903;SDS011;7543;53.148;8.234;2023-11-21T05:22:13;13.80;;;8.23;;
14903;SDS011;7543;53.148;8.234;2023-11-21T05:24:41;12.47;;;7.70;;
14903;SDS011;7543;53.148;8.234;2023-11-21T05:27:10;12.13;;;7.77;;
14903;SDS011;7543;53.148;8.234;2023-11-21T05:29:39;12.00;;;7.30;;
14903;SDS011;7543;53.148;8.234;2023-11-21T05:32:08;11.50;;;7.80;;
14903;SDS011;7543;53.148;8.234;2023-11-21T05:34:36;14.73;;;7.90;;
14903;SDS011;7543;53.148;8.234;2023-11-21T05:37:04;14.10;;;7.43;;
14903;SDS011;7543;53.148;8.234;2023-11-21T05:39:33;13.33;;;7.43;;
14903;SDS011;7543;53.148;8.234;2023-11-21T05:42:02;13.80;;;7.00;;
14903;SDS011;7543;53.148;8.234;2023-11-21T05:44:31;12.97;;;7.20;;
14903;SDS011;7543;53.148;8.234;2023-11-21T05:47:01;12.87;;;7.10;;
14903;SDS011;7543;53.148;8.234;2023-11-21T05:49:30;13.63;;;6.77;;
14903;SDS011;7543;53.148;8.234;2023-11-21T05:51:59;15.33;;;7.47;;
14903;SDS011;7543;53.148;8.234;2023-11-21T05:54:27;13.80;;;7.83;;
14903;SDS011;7543;53.148;8.234;2023-11-21T05:56:55;13.87;;;7.77;;
14903;SDS011;7543;53.148;8.234;2023-11-21T05:59:24;16.00;;;8.33;;
14903;SDS011;7543;53.148;8.234;2023-11-21T06:01:52;13.33;;;7.97;;
14903;SDS011;7543;53.148;8.234;2023-11-21T06:04:26;15.00;;;8.00;;
14903;SDS011;7543;53.148;8.234;2023-11-21T06:06:54;14.00;;;8.03;;
14903;SDS011;7543;53.148;8.234;2023-11-21T06:09:22;12.37;;;7.13;;
14903;SDS011;7543;53.148;8.234;2023-11-21T06:11:52;12.07;;;6.77;;
14903;SDS011;7543;53.148;8.234;2023-11-21T06:14:20;15.20;;;7.90;;
14903;SDS011;7543;53.148;8.234;2023-11-21T06:16:48;12.70;;;7.57;;
14903;SDS011;7543;53.148;8.234;2023-11-21T06:19:17;13.17;;;7.47;;
14903;SDS011;7543;53.148;8.234;2023-11-21T06:21:46;13.80;;;8.60;;
14903;SDS011;7543;53.148;8.234;2023-11-21T06:24:15;15.20;;;9.13;;
14903;SDS011;7543;53.148;8.234;2023-11-21T06:26:43;14.43;;;8.90;;
14903;SDS011;7543;53.148;8.234;2023-11-21T06:29:12;16.90;;;8.93;;
14903;SDS011;7543;53.148;8.234;2023-11-21T06:31:40;14.50;;;7.70;;
14903;SDS011;7543;53.148;8.234;2023-11-21T06:34:08;12.70;;;8.10;;
14903;SDS011;7543;53.148;8.234;2023-11-21T06:36:37;13.20;;;6.93;;
14903;SDS011;7543;53.148;8.234;2023-11-21T06:39:06;9.43;;;5.60;;
14903;SDS011;7543;53.148;8.234;2023-11-21T06:41:35;12.57;;;7.10;;
14903;SDS011;7543;53.148;8.234;2023-11-21T06:44:05;9.07;;;5.97;;
14903;SDS011;7543;53.148;8.234;2023-11-21T06:46:35;8.87;;;5.70;;
14903;SDS011;7543;53.148;8.234;2023-11-21T06:49:05;9.63;;;5.30;;
14903;SDS011;7543;53.148;8.234;2023-11-21T06:51:33;8.97;;;5.47;;
14903;SDS011;7543;53.148;8.234;2023-11-21T06:54:02;7.33;;;4.87;;
14903;SDS011;7543;53.148;8.234;2023-11-21T06:56:32;14.37;;;5.10;;
14903;SDS011;7543;53.148;8.234;2023-11-21T06:59:01;8.70;;;5.03;;
14903;SDS011;7543;53.148;8.234;2023-11-21T07:01:35;8.07;;;4.70;;
14903;SDS011;7543;53.148;8.234;2023-11-21T07:04:05;6.03;;;3.90;;
14903;SDS011;7543;53.148;8.234;2023-11-21T07:06:34;8.73;;;4.07;;
14903;SDS011;7543;53.148;8.234;2023-11-21T07:09:03;6.97;;;3.93;;
14903;SDS011;7543;53.148;8.234;2023-11-21T07:11:33;8.40;;;4.37;;
14903;SDS011;7543;53.148;8.234;2023-11-21T07:14:01;7.60;;;4.33;;
14903;SDS011;7543;53.148;8.234;2023-11-21T07:16:34;7.83;;;4.77;;
14903;SDS011;7543;53.148;8.234;2023-11-21T07:19:04;7.90;;;4.43;;
14903;SDS011;7543;53.148;8.234;2023-11-21T07:21:38;7.87;;;4.63;;
14903;SDS011;7543;53.148;8.234;2023-11-21T07:24:07;7.53;;;4.90;;
14903;SDS011;7543;53.148;8.234;2023-11-21T07:26:37;9.83;;;4.70;;
14903;SDS011;7543;53.148;8.234;2023-11-21T07:29:06;8.27;;;5.17;;
14903;SDS011;7543;53.148;8.234;2023-11-21T07:31:34;6.90;;;4.23;;
14903;SDS011;7543;53.148;8.234;2023-11-21T07:34:02;7.83;;;5.00;;
14903;SDS011;7543;53.148;8.234;2023-11-21T07:36:31;7.87;;;4.47;;
14903;SDS011;7543;53.148;8.234;2023-11-21T07:38:59;8.60;;;4.97;;
14903;SDS011;7543;53.148;8.234;2023-11-21T07:41:29;6.73;;;4.63;;
14903;SDS011;7543;53.148;8.234;2023-11-21T07:43:59;8.73;;;5.00;;
14903;SDS011;7543;53.148;8.234;2023-11-21T07:46:27;8.13;;;4.73;;
14903;SDS011;7543;53.148;8.234;2023-11-21T07:48:55;7.60;;;4.57;;
14903;SDS011;7543;53.148;8.234;2023-11-21T07:51:24;6.73;;;4.47;;
14903;SDS011;7543;53.148;8.234;2023-11-21T07:53:53;14.20;;;7.97;;
14903;SDS011;7543;53.148;8.234;2023-11-21T07:56:21;10.40;;;5.10;;
14903;SDS011;7543;53.148;8.234;2023-11-21T07:58:50;7.80;;;4.23;;
14903;SDS011;7543;53.148;8.234;2023-11-21T08:01:20;8.47;;;4.73;;
14903;SDS011;7543;53.148;8.234;2023-11-21T08:03:48;8.57;;;5.00;;
14903;SDS011;7543;53.148;8.234;2023-11-21T08:06:19;7.43;;;4.63;;
14903;SDS011;7543;53.148;8.234;2023-11-21T08:08:47;8.07;;;4.50;;
14903;SDS011;7543;53.148;8.234;2023-11-21T08:11:16;8.40;;;5.10;;
14903;SDS011;7543;53.148;8.234;2023-11-21T08:13:44;7.37;;;4.67;;
14903;SDS011;7543;53.148;8.234;2023-11-21T08:16:12;6.87;;;4.33;;
14903;SDS011;7543;53.148;8.234;2023-11-21T08:18:42;6.47;;;4.40;;
14903;SDS011;7543;53.148;8.234;2023-11-21T08:21:12;8.30;;;4.27;;
14903;SDS011;7543;53.148;8.234;2023-11-21T08:23:40;9.33;;;4.90;;
14903;SDS011;7543;53.148;8.234;2023-11-21T08:26:08;8.07;;;4.70;;
14903;SDS011;7543;53.148;8.234;2023-11-21T08:28:36;7.70;;;4.80;;
14903;SDS011;7543;53.148;8.234;2023-11-21T08:31:05;6.60;;;4.53;;
14903;SDS011;7543;53.148;8.234;2023-11-21T08:33:33;9.87;;;5.37;;
14903;SDS011;7543;53.148;8.234;2023-11-21T08:36:07;9.63;;;5.17;;
14903;SDS011;7543;53.148;8.234;2023-11-21T08:38:37;9.43;;;5.23;;
14903;SDS011;7543;53.148;8.234;2023-11-21T08:41:07;8.07;;;5.00;;
14903;SDS011;7543;53.148;8.234;2023-11-21T08:43:35;7.00;;;4.87;;
14903;SDS011;7543;53.148;8.234;2023-11-21T08:46:06;7.90;;;4.97;;
14903;SDS011;7543;53.148;8.234;2023-11-21T08:48:35;7.07;;;4.90;;
14903;SDS011;7543;53.148;8.234;2023-11-21T08:51:04;8.70;;;5.10;;
14903;SDS011;7543;53.148;8.234;2023-11-21T08:53:34;8.57;;;5.00;;
14903;SDS011;7543;53.148;8.234;2023-11-21T08:56:02;9.17;;;5.10;;
14903;SDS011;7543;53.148;8.234;2023-11-21T08:58:32;8.60;;;5.07;;
14903;SDS011;7543;53.148;8.234;2023-11-21T09:01:00;7.50;;;4.43;;
14903;SDS011;7543;53.148;8.234;2023-11-21T09:03:28;7.13;;;4.47;;
14903;SDS011;7543;53.148;8.234;2023-11-21T09:05:58;6.70;;;4.77;;
14903;SDS011;7543;53.148;8.234;2023-11-21T09:08:27;7.47;;;4.43;;
14903;SDS011;7543;53.148;8.234;2023-11-21T09:10:57;8.50;;;5.50;;
14903;SDS011;7543;53.148;8.234;2023-11-21T09:13:25;8.80;;;5.03;;
14903;SDS011;7543;53.148;8.234;2023-11-21T09:15:54;9.33;;;5.17;;
14903;SDS011;7543;53.148;8.234;2023-11-21T09:18:22;7.67;;;5.07;;
14903;SDS011;7543;53.148;8.234;2023-11-21T09:20:51;7.40;;;4.93;;
14903;SDS011;7543;53.148;8.234;2023-11-21T09:23:19;8.00;;;4.40;;
14903;SDS011;7543;53.148;8.234;2023-11-21T09:25:48;8.00;;;5.47;;
14903;SDS011;7543;53.148;8.234;2023-11-21T09:28:19;9.63;;;5.00;;
14903;SDS011;7543;53.148;8.234;2023-11-21T09:30:48;9.03;;;4.70;;
14903;SDS011;7543;53.148;8.234;2023-11-21T09:33:17;9.60;;;4.80;;
14903;SDS011;7543;53.148;8.234;2023-11-21T09:35:46;13.53;;;5.17;;
14903;SDS011;7543;53.148;8.234;2023-11-21T09:38:15;9.23;;;5.27;;
14903;SDS011;7543;53.148;8.234;2023-11-21T09:40:43;7.13;;;4.67;;
14903;SDS011;7543;53.148;8.234;2023-11-21T09:43:15;9.47;;;4.87;;
14903;SDS011;7543;53.148;8.234;2023-11-21T09:45:46;8.37;;;4.67;;
14903;SDS011;7543;53.148;8.234;2023-11-21T09:48:17;6.90;;;4.40;;
14903;SDS011;7543;53.148;8.234;2023-11-21T09:50:46;7.17;;;4.73;;
14903;SDS011;7543;53.148;8.234;2023-11-21T09:53:16;10.17;;;5.37;;
14903;SDS011;7543;53.148;8.234;2023-11-21T09:55:48;7.17;;;4.33;;
14903;SDS011;7543;53.148;8.234;2023-11-21T09:58:17;6.90;;;4.33;;
14903;SDS011;7543;53.148;8.234;2023-11-21T10:00:48;7.03;;;4.47;;
14903;SDS011;7543;53.148;8.234;2023-11-21T10:03:18;6.40;;;4.63;;
14903;SDS011;7543;53.148;8.234;2023-11-21T10:05:47;7.73;;;4.83;;
14903;SDS011;7543;53.148;8.234;2023-11-21T10:08:16;6.97;;;4.73;;
14903;SDS011;7543;53.148;8.234;2023-11-21T10:10:46;7.63;;;4.63;;
14903;SDS011;7543;53.148;8.234;2023-11-21T10:13:15;10.30;;;4.67;;
14903;SDS011;7543;53.148;8.234;2023-11-21T10:15:48;7.53;;;5.00;;
14903;SDS011;7543;53.148;8.234;2023-11-21T10:18:18;7.57;;;5.00;;
14903;SDS011;7543;53.148;8.234;2023-11-21T10:20:51;6.90;;;4.43;;
14903;SDS011;7543;53.148;8.234;2023-11-21T10:23:21;8.60;;;4.70;;
14903;SDS011;7543;53.148;8.234;2023-11-21T10:25:50;7.10;;;4.80;;
14903;SDS011;7543;53.148;8.234;2023-11-21T10:28:19;7.80;;;4.60;;
14903;SDS011;7543;53.148;8.234;2023-11-21T10:30:48;7.57;;;4.57;;
14903;SDS011;7543;53.148;8.234;2023-11-21T10:33:17;7.20;;;4.83;;
14903;SDS011;7543;53.148;8.234;2023-11-21T10:35:45;6.10;;;4.60;;
14903;SDS011;7543;53.148;8.234;2023-11-21T10:38:17;7.67;;;4.57;;
14903;SDS011;7543;53.148;8.234;2023-11-21T10:40:47;8.67;;;4.80;;
14903;SDS011;7543;53.148;8.234;2023-11-21T10:43:16;7.37;;;4.43;;
14903;SDS011;7543;53.148;8.234;2023-11-21T10:45:45;8.93;;;5.03;;
14903;SDS011;7543;53.148;8.234;2023-11-21T10:48:15;6.70;;;4.40;;
14903;SDS011;7543;53.148;8.234;2023-11-21T10:50:44;6.30;;;4.23;;
14903;SDS011;7543;53.148;8.234;2023-11-21T10:53:13;7.63;;;4.57;;
14903;SDS011;7543;53.148;8.234;2023-11-21T10:55:42;8.90;;;4.97;;
14903;SDS011;7543;53.148;8.234;2023-11-21T10:58:12;7.60;;;4.40;;
14903;SDS011;7543;53.148;8.234;2023-11-21T11:00:41;8.20;;;4.77;;
14903;SDS011;7543;53.148;8.234;2023-11-21T11:03:12;7.03;;;4.03;;
14903;SDS011;7543;53.148;8.234;2023-11-21T11:05:42;7.43;;;4.30;;
14903;SDS011;7543;53.148;8.234;2023-11-21T11:08:17;7.67;;;4.70;;
14903;SDS011;7543;53.148;8.234;2023-11-21T11:10:46;9.60;;;5.00;;
14903;SDS011;7543;53.148;8.234;2023-11-21T11:13:19;8.17;;;4.90;;
14903;SDS011;7543;53.148;8.234;2023-11-21T11:15:48;9.03;;;5.10;;
14903;SDS011;7543;53.148;8.234;2023-11-21T11:18:18;8.27;;;5.20;;
14903;SDS011;7543;53.148;8.234;2023-11-21T11:20:49;8.13;;;4.70;;
14903;SDS011;7543;53.148;8.234;2023-11-21T11:23:27;7.47;;;4.93;;
14903;SDS011;7543;53.148;8.234;2023-11-21T11:26:07;7.00;;;4.77;;
14903;SDS011;7543;53.148;8.234;2023-11-21T11:28:44;9.47;;;4.43;;
14903;SDS011;7543;53.148;8.234;2023-11-21T11:31:18;6.67;;;4.33;;
14903;SDS011;7543;53.148;8.234;2023-11-21T11:33:55;7.80;;;4.33;;
14903;SDS011;7543;53.148;8.234;2023-11-21T11:36:28;9.17;;;4.47;;
14903;SDS011;7543;53.148;8.234;2023-11-21T11:38:59;7.07;;;4.27;;
14903;SDS011;7543;53.148;8.234;2023-11-21T11:41:30;9.20;;;4.33;;
14903;SDS011;7543;53.148;8.234;2023-11-21T11:44:01;7.07;;;4.13;;
14903;SDS011;7543;53.148;8.234;2023-11-21T11:46:41;7.13;;;4.50;;
14903;SDS011;7543;53.148;8.234;2023-11-21T11:49:23;5.90;;;3.93;;
14903;SDS011;7543;53.148;8.234;2023-11-21T11:54:55;6.87;;;4.30;;
14903;SDS011;7543;53.148;8.234;2023-11-21T11:57:23;6.63;;;4.00;;
14903;SDS011;7543;53.148;8.234;2023-11-21T12:00:11;7.97;;;4.20;;
14903;SDS011;7543;53.148;8.234;2023-11-21T12:02:45;8.80;;;4.70;;
14903;SDS011;7543;53.148;8.234;2023-11-21T12:05:15;8.10;;;3.90;;
14903;SDS011;7543;53.148;8.234;2023-11-21T12:07:45;6.80;;;3.80;;
14903;SDS011;7543;53.148;8.234;2023-11-21T12:10:16;5.43;;;3.90;;
14903;SDS011;7543;53.148;8.234;2023-11-21T12:12:45;7.70;;;4.27;;
14903;SDS011;7543;53.148;8.234;2023-11-21T12:15:15;7.07;;;4.10;;
14903;SDS011;7543;53.148;8.234;2023-11-21T12:17:44;5.37;;;3.53;;
14903;SDS011;7543;53.148;8.234;2023-11-21T12:20:15;4.97;;;3.23;;
14903;SDS011;7543;53.148;8.234;2023-11-21T12:22:46;3.63;;;2.80;;
14903;SDS011;7543;53.148;8.234;2023-11-21T12:25:19;4.57;;;2.57;;
14903;SDS011;7543;53.148;8.234;2023-11-21T12:27:49;4.60;;;2.60;;
14903;SDS011;7543;53.148;8.234;2023-11-21T12:30:19;5.00;;;2.77;;
14903;SDS011;7543;53.148;8.234;2023-11-21T12:32:49;3.10;;;2.20;;
14903;SDS011;7543;53.148;8.234;2023-11-21T12:35:19;4.70;;;2.27;;
14903;SDS011;7543;53.148;8.234;2023-11-21T12:37:48;3.53;;;2.10;;
14903;SDS011;7543;53.148;8.234;2023-11-21T12:40:19;2.60;;;1.90;;
14903;SDS011;7543;53.148;8.234;2023-11-21T12:42:51;4.97;;;2.40;;
14903;SDS011;7543;53.148;8.234;2023-11-21T12:45:20;3.97;;;2.40;;
14903;SDS011;7543;53.148;8.234;2023-11-21T12:47:55;4.37;;;3.10;;
14903;SDS011;7543;53.148;8.234;2023-11-21T12:50:27;6.30;;;2.70;;
14903;SDS011;7543;53.148;8.234;2023-11-21T12:52:59;3.80;;;2.40;;
14903;SDS011;7543;53.148;8.234;2023-11-21T12:55:31;5.13;;;2.20;;
14903;SDS011;7543;53.148;8.234;2023-11-21T12:58:07;3.97;;;2.57;;
14903;SDS011;7543;53.148;8.234;2023-11-21T13:00:37;3.70;;;2.20;;
14903;SDS011;7543;53.148;8.234;2023-11-21T13:03:09;4.30;;;2.80;;
14903;SDS011;7543;53.148;8.234;2023-11-21T13:05:39;5.53;;;3.07;;
14903;SDS011;7543;53.148;8.234;2023-11-21T13:11:19;4.93;;;2.53;;
14903;SDS011;7543;53.148;8.234;2023-11-21T13:13:48;7.07;;;2.70;;
14903;SDS011;7543;53.148;8.234;2023-11-21T13:16:20;4.07;;;2.60;;
14903;SDS011;7543;53.148;8.234;2023-11-21T13:18:51;5.00;;;2.77;;
14903;SDS011;7543;53.148;8.234;2023-11-21T13:21:20;4.13;;;2.63;;
14903;SDS011;7543;53.148;8.234;2023-11-21T13:23:49;5.73;;;2.93;;
14903;SDS011;7543;53.148;8.234;2023-11-21T13:26:21;6.43;;;2.63;;
14903;SDS011;7543;53.148;8.234;2023-11-21T13:28:51;4.53;;;2.73;;
14903;SDS011;7543;53.148;8.234;2023-11-21T13:31:23;4.90;;;2.77;;
14903;SDS011;7543;53.148;8.234;2023-11-21T13:33:56;6.60;;;3.00;;
14903;SDS011;7543;53.148;8.234;2023-11-21T13:36:31;6.27;;;3.23;;
14903;SDS011;7543;53.148;8.234;2023-11-21T13:39:02;6.23;;;3.20;;
14903;SDS011;7543;53.148;8.234;2023-11-21T13:41:35;3.80;;;2.97;;
14903;SDS011;7543;53.148;8.234;2023-11-21T13:44:05;4.00;;;2.73;;
14903;SDS011;7543;53.148;8.234;2023-11-21T13:46:42;3.40;;;2.47;;
14903;SDS011;7543;53.148;8.234;2023-11-21T13:49:12;4.97;;;2.93;;
14903;SDS011;7543;53.148;8.234;2023-11-21T13:51:42;6.83;;;2.80;;
14903;SDS011;7543;53.148;8.234;2023-11-21T13:54:11;6.40;;;2.40;;
14903;SDS011;7543;53.148;8.234;2023-11-21T13:56:42;6.70;;;3.67;;
14903;SDS011;7543;53.148;8.234;2023-11-21T13:59:11;3.80;;;2.60;;
14903;SDS011;7543;53.148;8.234;2023-11-21T14:01:47;3.47;;;2.20;;
14903;SDS011;7543;53.148;8.234;2023-11-21T14:04:22;3.40;;;2.37;;
14903;SDS011;7543;53.148;8.234;2023-11-21T14:07:06;4.40;;;2.60;;
14903;SDS011;7543;53.148;8.234;2023-11-21T14:09:49;4.40;;;2.73;;
14903;SDS011;7543;53.148;8.234;2023-11-21T14:12:21;4.70;;;2.87;;
14903;SDS011;7543;53.148;8.234;2023-11-21T14:14:49;5.00;;;3.07;;
14903;SDS011;7543;53.148;8.234;2023-11-21T14:17:17;3.93;;;2.47;;
14903;SDS011;7543;53.148;8.234;2023-11-21T14:19:49;5.57;;;2.73;;
14903;SDS011;7543;53.148;8.234;2023-11-21T14:22:17;4.73;;;2.50;;
14903;SDS011;7543;53.148;8.234;2023-11-21T14:24:45;3.63;;;2.70;;
14903;SDS011;7543;53.148;8.234;2023-11-21T14:27:15;4.37;;;2.53;;
14903;SDS011;7543;53.148;8.234;2023-11-21T14:29:44;4.93;;;2.60;;
14903;SDS011;7543;53.148;8.234;2023-11-21T14:32:13;4.57;;;2.90;;
14903;SDS011;7543;53.148;8.234;2023-11-21T14:34:42;4.63;;;2.80;;
14903;SDS011;7543;53.148;8.234;2023-11-21T14:37:13;4.07;;;2.67;;
14903;SDS011;7543;53.148;8.234;2023-11-21T14:39:42;3.73;;;2.70;;
14903;SDS011;7543;53.148;8.234;2023-11-21T14:42:12;4.57;;;2.87;;
14903;SDS011;7543;53.148;8.234;2023-11-21T14:44:43;4.43;;;2.47;;
14903;SDS011;7543;53.148;8.234;2023-11-21T14:47:14;5.63;;;3.20;;
14903;SDS011;7543;53.148;8.234;2023-11-21T14:49:42;4.43;;;3.33;;
14903;SDS011;7543;53.148;8.234;2023-11-21T14:52:33;4.93;;;2.87;;
14903;SDS011;7543;53.148;8.234;2023-11-21T14:55:02;6.30;;;3.10;;
14903;SDS011;7543;53.148;8.234;2023-11-21T14:57:52;7.10;;;3.37;;
14903;SDS011;7543;53.148;8.234;2023-11-21T15:00:22;4.53;;;3.00;;
14903;SDS011;7543;53.148;8.234;2023-11-21T15:03:07;3.67;;;3.00;;
14903;SDS011;7543;53.148;8.234;2023-11-21T15:05:36;3.90;;;3.07;;
14903;SDS011;7543;53.148;8.234;2023-11-21T15:08:05;5.40;;;3.10;;
14903;SDS011;7543;53.148;8.234;2023-11-21T15:10:47;9.80;;;3.57;;
14903;SDS011;7543;53.148;8.234;2023-11-21T15:13:19;6.03;;;3.20;;
14903;SDS011;7543;53.148;8.234;2023-11-21T15:15:50;5.63;;;3.37;;
14903;SDS011;7543;53.148;8.234;2023-11-21T15:18:20;5.43;;;3.13;;
14903;SDS011;7543;53.148;8.234;2023-11-21T15:20:49;3.33;;;2.63;;